sensor_id;sensor_type;location;lat;lon;timestamp;temperature;humidity
40960;DHT22;27842;52.272;8.052;2024-03-22T00:01:58;11.30;99.90
40960;DHT22;27842;52.272;8.052;2024-03-22T00:04:24;11.30;99.90
40960;DHT22;27842;52.272;8.052;2024-03-22T00:06:49;11.30;99.90
40960;DHT22;27842;52.272;8.052;2024-03-22T00:09:16;11.30;99.90
40960;DHT22;27842;52.272;8.052;2024-03-22T00:11:42;11.30;99.90
40960;DHT22;27842;52.272;8.052;2024-03-22T00:14:09;11.30;99.90
40960;DHT22;27842;52.272;8.052;2024-03-22T00:16:35;11.30;99.90
40960;DHT22;27842;52.272;8.052;2024-03-22T00:19:01;11.30;99.90
40960;DHT22;27842;52.272;8.052;2024-03-22T00:21:27;11.30;99.90
40960;DHT22;27842;52.272;8.052;2024-03-22T00:23:53;11.30;99.90
40960;DHT22;27842;52.272;8.052;2024-03-22T00:26:19;11.30;99.90
40960;DHT22;27842;52.272;8.052;2024-03-22T00:28:44;11.30;99.90
40960;DHT22;27842;52.272;8.052;2024-03-22T00:31:10;11.30;99.90
40960;DHT22;27842;52.272;8.052;2024-03-22T00:33:36;11.30;99.90
40960;DHT22;27842;52.272;8.052;2024-03-22T00:36:01;11.40;99.90
40960;DHT22;27842;52.272;8.052;2024-03-22T00:38:27;11.40;99.90
40960;DHT22;27842;52.272;8.052;2024-03-22T00:40:53;11.30;99.90
40960;DHT22;27842;52.272;8.052;2024-03-22T00:43:19;11.30;99.90
40960;DHT22;27842;52.272;8.052;2024-03-22T00:45:45;11.30;99.90
40960;DHT22;27842;52.272;8.052;2024-03-22T00:48:11;11.30;99.90
40960;DHT22;27842;52.272;8.052;2024-03-22T00:50:36;11.30;99.90
40960;DHT22;27842;52.272;8.052;2024-03-22T00:53:02;11.30;99.90
40960;DHT22;27842;52.272;8.052;2024-03-22T00:55:28;11.30;99.90
40960;DHT22;27842;52.272;8.052;2024-03-22T00:57:54;11.30;99.90
40960;DHT22;27842;52.272;8.052;2024-03-22T01:00:19;11.30;99.90
40960;DHT22;27842;52.272;8.052;2024-03-22T01:02:45;11.30;99.90
40960;DHT22;27842;52.272;8.052;2024-03-22T01:05:11;11.30;99.90
40960;DHT22;27842;52.272;8.052;2024-03-22T01:07:36;11.30;99.90
40960;DHT22;27842;52.272;8.052;2024-03-22T01:10:04;11.30;99.90
40960;DHT22;27842;52.272;8.052;2024-03-22T01:12:30;11.30;99.90
40960;DHT22;27842;52.272;8.052;2024-03-22T01:14:55;11.30;99.90
40960;DHT22;27842;52.272;8.052;2024-03-22T01:17:21;11.30;99.90
40960;DHT22;27842;52.272;8.052;2024-03-22T01:19:46;11.20;99.90
40960;DHT22;27842;52.272;8.052;2024-03-22T01:22:12;11.20;99.90
40960;DHT22;27842;52.272;8.052;2024-03-22T01:24:37;11.20;99.90
40960;DHT22;27842;52.272;8.052;2024-03-22T01:27:03;11.20;99.90
40960;DHT22;27842;52.272;8.052;2024-03-22T01:29:29;11.30;99.90
40960;DHT22;27842;52.272;8.052;2024-03-22T01:31:59;11.30;99.90
40960;DHT22;27842;52.272;8.052;2024-03-22T01:34:25;11.30;99.90
40960;DHT22;27842;52.272;8.052;2024-03-22T01:36:51;11.30;99.90
40960;DHT22;27842;52.272;8.052;2024-03-22T01:39:19;11.30;99.90
40960;DHT22;27842;52.272;8.052;2024-03-22T01:41:55;11.30;99.90
40960;DHT22;27842;52.272;8.052;2024-03-22T01:44:27;11.30;99.90
40960;DHT22;27842;52.272;8.052;2024-03-22T01:46:53;11.30;99.90
40960;DHT22;27842;52.272;8.052;2024-03-22T01:49:19;11.30;99.90
40960;DHT22;27842;52.272;8.052;2024-03-22T01:51:45;11.30;99.90
40960;DHT22;27842;52.272;8.052;2024-03-22T01:54:10;11.40;99.90
40960;DHT22;27842;52.272;8.052;2024-03-22T01:56:39;11.30;99.90
40960;DHT22;27842;52.272;8.052;2024-03-22T01:59:05;11.30;99.90
40960;DHT22;27842;52.272;8.052;2024-03-22T02:01:32;11.40;99.90
40960;DHT22;27842;52.272;8.052;2024-03-22T02:03:57;11.30;99.90
40960;DHT22;27842;52.272;8.052;2024-03-22T02:06:23;11.40;99.90
40960;DHT22;27842;52.272;8.052;2024-03-22T02:08:48;11.40;99.90
40960;DHT22;27842;52.272;8.052;2024-03-22T02:11:14;11.30;99.90
40960;DHT22;27842;52.272;8.052;2024-03-22T02:13:40;11.40;99.90
40960;DHT22;27842;52.272;8.052;2024-03-22T02:16:06;11.30;99.90
40960;DHT22;27842;52.272;8.052;2024-03-22T02:18:31;11.40;99.90
40960;DHT22;27842;52.272;8.052;2024-03-22T02:20:57;11.30;99.90
40960;DHT22;27842;52.272;8.052;2024-03-22T02:23:33;11.30;99.90
40960;DHT22;27842;52.272;8.052;2024-03-22T02:26:00;11.30;99.90
40960;DHT22;27842;52.272;8.052;2024-03-22T02:28:26;11.30;99.90
40960;DHT22;27842;52.272;8.052;2024-03-22T02:30:51;11.40;99.90
40960;DHT22;27842;52.272;8.052;2024-03-22T02:33:17;11.40;99.90
40960;DHT22;27842;52.272;8.052;2024-03-22T02:35:43;11.40;99.90
40960;DHT22;27842;52.272;8.052;2024-03-22T02:38:08;11.30;99.90
40960;DHT22;27842;52.272;8.052;2024-03-22T02:40:34;11.30;99.90
40960;DHT22;27842;52.272;8.052;2024-03-22T02:43:00;11.30;99.90
40960;DHT22;27842;52.272;8.052;2024-03-22T02:45:25;11.30;99.90
40960;DHT22;27842;52.272;8.052;2024-03-22T02:47:51;11.30;99.90
40960;DHT22;27842;52.272;8.052;2024-03-22T02:50:16;11.30;99.90
40960;DHT22;27842;52.272;8.052;2024-03-22T02:52:42;11.30;99.90
40960;DHT22;27842;52.272;8.052;2024-03-22T02:55:07;11.20;99.90
40960;DHT22;27842;52.272;8.052;2024-03-22T02:57:33;11.30;99.90
40960;DHT22;27842;52.272;8.052;2024-03-22T03:00:00;11.30;99.90
40960;DHT22;27842;52.272;8.052;2024-03-22T03:02:26;11.30;99.90
40960;DHT22;27842;52.272;8.052;2024-03-22T03:04:51;11.30;99.90
40960;DHT22;27842;52.272;8.052;2024-03-22T03:07:17;11.30;99.90
40960;DHT22;27842;52.272;8.052;2024-03-22T03:09:42;11.20;99.90
40960;DHT22;27842;52.272;8.052;2024-03-22T03:12:08;11.20;99.90
40960;DHT22;27842;52.272;8.052;2024-03-22T03:14:33;11.30;99.90
40960;DHT22;27842;52.272;8.052;2024-03-22T03:16:59;11.30;99.90
40960;DHT22;27842;52.272;8.052;2024-03-22T03:19:24;11.20;99.90
40960;DHT22;27842;52.272;8.052;2024-03-22T03:21:50;11.20;99.90
40960;DHT22;27842;52.272;8.052;2024-03-22T03:24:15;11.20;99.90
40960;DHT22;27842;52.272;8.052;2024-03-22T03:26:41;11.20;99.90
40960;DHT22;27842;52.272;8.052;2024-03-22T03:29:06;11.20;99.90
40960;DHT22;27842;52.272;8.052;2024-03-22T03:31:32;11.20;99.90
40960;DHT22;27842;52.272;8.052;2024-03-22T03:33:58;11.20;99.90
40960;DHT22;27842;52.272;8.052;2024-03-22T03:36:24;11.20;99.90
40960;DHT22;27842;52.272;8.052;2024-03-22T03:38:49;11.20;99.90
40960;DHT22;27842;52.272;8.052;2024-03-22T03:41:15;11.30;99.90
40960;DHT22;27842;52.272;8.052;2024-03-22T03:43:40;11.20;99.90
40960;DHT22;27842;52.272;8.052;2024-03-22T03:46:06;11.20;99.90
40960;DHT22;27842;52.272;8.052;2024-03-22T03:48:31;11.20;99.90
40960;DHT22;27842;52.272;8.052;2024-03-22T03:50:57;11.20;99.90
40960;DHT22;27842;52.272;8.052;2024-03-22T03:53:28;11.20;99.90
40960;DHT22;27842;52.272;8.052;2024-03-22T03:55:53;11.20;99.90
40960;DHT22;27842;52.272;8.052;2024-03-22T03:58:19;11.20;99.90
40960;DHT22;27842;52.272;8.052;2024-03-22T04:00:44;11.30;99.90
40960;DHT22;27842;52.272;8.052;2024-03-22T04:03:10;11.30;99.90
40960;DHT22;27842;52.272;8.052;2024-03-22T04:05:36;11.30;99.90
40960;DHT22;27842;52.272;8.052;2024-03-22T04:08:02;11.20;99.90
40960;DHT22;27842;52.272;8.052;2024-03-22T04:10:27;11.30;99.90
40960;DHT22;27842;52.272;8.052;2024-03-22T04:12:53;11.20;99.90
40960;DHT22;27842;52.272;8.052;2024-03-22T04:15:18;11.30;99.90
40960;DHT22;27842;52.272;8.052;2024-03-22T04:17:44;11.30;99.90
40960;DHT22;27842;52.272;8.052;2024-03-22T04:20:10;11.30;99.90
40960;DHT22;27842;52.272;8.052;2024-03-22T04:22:37;11.30;99.90
40960;DHT22;27842;52.272;8.052;2024-03-22T04:25:02;11.30;99.90
40960;DHT22;27842;52.272;8.052;2024-03-22T04:27:28;11.30;99.90
40960;DHT22;27842;52.272;8.052;2024-03-22T04:29:54;11.30;99.90
40960;DHT22;27842;52.272;8.052;2024-03-22T04:32:19;11.30;99.90
40960;DHT22;27842;52.272;8.052;2024-03-22T04:34:45;11.30;99.90
40960;DHT22;27842;52.272;8.052;2024-03-22T04:37:10;11.30;99.90
40960;DHT22;27842;52.272;8.052;2024-03-22T04:39:40;11.30;99.90
40960;DHT22;27842;52.272;8.052;2024-03-22T04:42:06;11.30;99.90
40960;DHT22;27842;52.272;8.052;2024-03-22T04:44:32;11.20;99.90
40960;DHT22;27842;52.272;8.052;2024-03-22T04:46:57;11.30;99.90
40960;DHT22;27842;52.272;8.052;2024-03-22T04:49:23;11.30;99.90
40960;DHT22;27842;52.272;8.052;2024-03-22T04:51:49;11.30;99.90
40960;DHT22;27842;52.272;8.052;2024-03-22T04:54:14;11.20;99.90
40960;DHT22;27842;52.272;8.052;2024-03-22T04:56:40;11.30;99.90
40960;DHT22;27842;52.272;8.052;2024-03-22T04:59:06;11.30;99.90
40960;DHT22;27842;52.272;8.052;2024-03-22T05:01:31;11.30;99.90
40960;DHT22;27842;52.272;8.052;2024-03-22T05:03:58;11.30;99.90
40960;DHT22;27842;52.272;8.052;2024-03-22T05:06:23;11.30;99.90
40960;DHT22;27842;52.272;8.052;2024-03-22T05:08:49;11.40;99.90
40960;DHT22;27842;52.272;8.052;2024-03-22T05:11:14;11.40;99.90
40960;DHT22;27842;52.272;8.052;2024-03-22T05:13:40;11.30;99.90
40960;DHT22;27842;52.272;8.052;2024-03-22T05:16:06;11.40;99.90
40960;DHT22;27842;52.272;8.052;2024-03-22T05:18:32;11.30;99.90
40960;DHT22;27842;52.272;8.052;2024-03-22T05:20:58;11.40;99.90
40960;DHT22;27842;52.272;8.052;2024-03-22T05:23:23;11.30;99.90
40960;DHT22;27842;52.272;8.052;2024-03-22T05:25:49;11.30;99.90
40960;DHT22;27842;52.272;8.052;2024-03-22T05:28:14;11.30;99.90
40960;DHT22;27842;52.272;8.052;2024-03-22T05:30:40;11.30;99.90
40960;DHT22;27842;52.272;8.052;2024-03-22T05:33:05;11.30;99.90
40960;DHT22;27842;52.272;8.052;2024-03-22T05:35:31;11.40;99.90
40960;DHT22;27842;52.272;8.052;2024-03-22T05:37:56;11.40;99.90
40960;DHT22;27842;52.272;8.052;2024-03-22T05:40:22;11.40;99.90
40960;DHT22;27842;52.272;8.052;2024-03-22T05:42:48;11.40;99.90
40960;DHT22;27842;52.272;8.052;2024-03-22T05:45:14;11.40;99.90
40960;DHT22;27842;52.272;8.052;2024-03-22T05:47:39;11.40;99.90
40960;DHT22;27842;52.272;8.052;2024-03-22T05:50:05;11.40;99.90
40960;DHT22;27842;52.272;8.052;2024-03-22T05:52:34;11.40;99.90
40960;DHT22;27842;52.272;8.052;2024-03-22T05:55:00;11.40;99.90
40960;DHT22;27842;52.272;8.052;2024-03-22T05:57:25;11.40;99.90
40960;DHT22;27842;52.272;8.052;2024-03-22T05:59:51;11.40;99.90
40960;DHT22;27842;52.272;8.052;2024-03-22T06:02:18;11.40;99.90
40960;DHT22;27842;52.272;8.052;2024-03-22T06:04:44;11.50;99.90
40960;DHT22;27842;52.272;8.052;2024-03-22T06:07:10;11.50;99.90
40960;DHT22;27842;52.272;8.052;2024-03-22T06:09:36;11.60;99.90
40960;DHT22;27842;52.272;8.052;2024-03-22T06:12:15;11.60;99.90
40960;DHT22;27842;52.272;8.052;2024-03-22T06:14:41;11.60;99.90
40960;DHT22;27842;52.272;8.052;2024-03-22T06:17:08;11.60;99.90
40960;DHT22;27842;52.272;8.052;2024-03-22T06:19:35;11.60;99.90
40960;DHT22;27842;52.272;8.052;2024-03-22T06:22:00;11.60;99.90
40960;DHT22;27842;52.272;8.052;2024-03-22T06:24:26;11.60;99.90
40960;DHT22;27842;52.272;8.052;2024-03-22T06:26:52;11.60;99.90
40960;DHT22;27842;52.272;8.052;2024-03-22T06:29:17;11.60;99.90
40960;DHT22;27842;52.272;8.052;2024-03-22T06:31:43;11.60;99.90
40960;DHT22;27842;52.272;8.052;2024-03-22T06:34:12;11.70;99.90
40960;DHT22;27842;52.272;8.052;2024-03-22T06:36:37;11.70;99.90
40960;DHT22;27842;52.272;8.052;2024-03-22T06:39:03;11.70;99.90
40960;DHT22;27842;52.272;8.052;2024-03-22T06:41:32;11.70;99.90
40960;DHT22;27842;52.272;8.052;2024-03-22T06:43:57;11.70;99.90
40960;DHT22;27842;52.272;8.052;2024-03-22T06:46:23;11.70;99.90
40960;DHT22;27842;52.272;8.052;2024-03-22T06:48:50;11.70;99.90
40960;DHT22;27842;52.272;8.052;2024-03-22T06:51:16;11.70;99.90
40960;DHT22;27842;52.272;8.052;2024-03-22T06:53:42;11.70;99.90
40960;DHT22;27842;52.272;8.052;2024-03-22T06:56:07;11.70;99.90
40960;DHT22;27842;52.272;8.052;2024-03-22T06:58:37;11.70;99.90
40960;DHT22;27842;52.272;8.052;2024-03-22T07:01:03;11.80;99.90
40960;DHT22;27842;52.272;8.052;2024-03-22T07:03:29;11.70;99.90
40960;DHT22;27842;52.272;8.052;2024-03-22T07:05:55;11.80;99.90
40960;DHT22;27842;52.272;8.052;2024-03-22T07:08:21;11.80;99.90
40960;DHT22;27842;52.272;8.052;2024-03-22T07:10:46;11.80;99.90
40960;DHT22;27842;52.272;8.052;2024-03-22T07:13:12;11.80;99.90
40960;DHT22;27842;52.272;8.052;2024-03-22T07:15:38;11.80;99.90
40960;DHT22;27842;52.272;8.052;2024-03-22T07:18:04;11.80;99.90
40960;DHT22;27842;52.272;8.052;2024-03-22T07:20:32;11.90;99.90
40960;DHT22;27842;52.272;8.052;2024-03-22T07:22:58;11.90;99.90
40960;DHT22;27842;52.272;8.052;2024-03-22T07:25:23;11.90;99.90
40960;DHT22;27842;52.272;8.052;2024-03-22T07:27:49;11.90;99.90
40960;DHT22;27842;52.272;8.052;2024-03-22T07:30:15;11.90;99.90
40960;DHT22;27842;52.272;8.052;2024-03-22T07:32:40;12.00;99.90
40960;DHT22;27842;52.272;8.052;2024-03-22T07:35:07;11.90;99.90
40960;DHT22;27842;52.272;8.052;2024-03-22T07:37:33;12.00;99.90
40960;DHT22;27842;52.272;8.052;2024-03-22T07:40:02;12.00;99.90
40960;DHT22;27842;52.272;8.052;2024-03-22T07:42:28;12.00;99.90
40960;DHT22;27842;52.272;8.052;2024-03-22T07:44:54;12.00;99.90
40960;DHT22;27842;52.272;8.052;2024-03-22T07:47:19;12.10;99.90
40960;DHT22;27842;52.272;8.052;2024-03-22T07:49:45;12.10;99.90
40960;DHT22;27842;52.272;8.052;2024-03-22T07:52:10;12.10;99.90
40960;DHT22;27842;52.272;8.052;2024-03-22T07:54:36;12.10;99.90
40960;DHT22;27842;52.272;8.052;2024-03-22T07:57:02;12.10;99.90
40960;DHT22;27842;52.272;8.052;2024-03-22T07:59:28;12.10;99.90
40960;DHT22;27842;52.272;8.052;2024-03-22T08:01:53;12.10;99.90
40960;DHT22;27842;52.272;8.052;2024-03-22T08:04:19;12.10;99.90
40960;DHT22;27842;52.272;8.052;2024-03-22T08:06:46;12.20;99.90
40960;DHT22;27842;52.272;8.052;2024-03-22T08:09:11;12.20;99.90
40960;DHT22;27842;52.272;8.052;2024-03-22T08:11:37;12.30;99.90
40960;DHT22;27842;52.272;8.052;2024-03-22T08:14:02;12.30;99.90
40960;DHT22;27842;52.272;8.052;2024-03-22T08:16:32;12.30;99.90
40960;DHT22;27842;52.272;8.052;2024-03-22T08:18:57;12.30;99.90
40960;DHT22;27842;52.272;8.052;2024-03-22T08:21:24;12.30;99.90
40960;DHT22;27842;52.272;8.052;2024-03-22T08:23:50;12.30;99.90
40960;DHT22;27842;52.272;8.052;2024-03-22T08:26:16;12.40;99.90
40960;DHT22;27842;52.272;8.052;2024-03-22T08:28:41;12.40;99.90
40960;DHT22;27842;52.272;8.052;2024-03-22T08:31:07;12.40;99.90
40960;DHT22;27842;52.272;8.052;2024-03-22T08:33:33;12.40;99.90
40960;DHT22;27842;52.272;8.052;2024-03-22T08:35:58;12.40;99.90
40960;DHT22;27842;52.272;8.052;2024-03-22T08:38:24;12.40;99.90
40960;DHT22;27842;52.272;8.052;2024-03-22T08:40:50;12.40;99.90
40960;DHT22;27842;52.272;8.052;2024-03-22T08:43:16;12.40;99.90
40960;DHT22;27842;52.272;8.052;2024-03-22T08:45:42;12.40;99.90
40960;DHT22;27842;52.272;8.052;2024-03-22T08:48:07;12.40;99.90
40960;DHT22;27842;52.272;8.052;2024-03-22T08:50:33;12.40;99.90
40960;DHT22;27842;52.272;8.052;2024-03-22T08:52:59;12.50;99.90
40960;DHT22;27842;52.272;8.052;2024-03-22T08:55:28;12.50;99.90
40960;DHT22;27842;52.272;8.052;2024-03-22T08:57:54;12.50;99.90
40960;DHT22;27842;52.272;8.052;2024-03-22T09:00:19;12.60;99.90
40960;DHT22;27842;52.272;8.052;2024-03-22T09:02:45;12.50;99.90
40960;DHT22;27842;52.272;8.052;2024-03-22T09:05:17;12.50;99.90
40960;DHT22;27842;52.272;8.052;2024-03-22T09:07:44;12.50;99.90
40960;DHT22;27842;52.272;8.052;2024-03-22T09:10:09;12.50;99.90
40960;DHT22;27842;52.272;8.052;2024-03-22T09:12:36;12.60;99.90
40960;DHT22;27842;52.272;8.052;2024-03-22T09:15:01;12.50;99.90
40960;DHT22;27842;52.272;8.052;2024-03-22T09:17:27;12.50;99.90
40960;DHT22;27842;52.272;8.052;2024-03-22T09:19:52;12.50;99.90
40960;DHT22;27842;52.272;8.052;2024-03-22T09:22:18;12.50;99.90
40960;DHT22;27842;52.272;8.052;2024-03-22T09:24:44;12.50;99.90
40960;DHT22;27842;52.272;8.052;2024-03-22T09:27:09;12.50;99.90
40960;DHT22;27842;52.272;8.052;2024-03-22T09:29:37;12.50;99.90
40960;DHT22;27842;52.272;8.052;2024-03-22T09:32:03;12.60;99.90
40960;DHT22;27842;52.272;8.052;2024-03-22T09:34:29;12.60;99.90
40960;DHT22;27842;52.272;8.052;2024-03-22T09:36:55;12.70;99.90
40960;DHT22;27842;52.272;8.052;2024-03-22T09:39:22;12.70;99.90
40960;DHT22;27842;52.272;8.052;2024-03-22T09:41:51;12.70;99.90
40960;DHT22;27842;52.272;8.052;2024-03-22T09:44:18;12.70;99.90
40960;DHT22;27842;52.272;8.052;2024-03-22T09:46:46;12.80;99.90
40960;DHT22;27842;52.272;8.052;2024-03-22T09:49:12;12.80;99.90
40960;DHT22;27842;52.272;8.052;2024-03-22T09:51:39;12.90;99.90
40960;DHT22;27842;52.272;8.052;2024-03-22T09:54:05;12.90;99.90
40960;DHT22;27842;52.272;8.052;2024-03-22T09:56:31;12.90;99.90
40960;DHT22;27842;52.272;8.052;2024-03-22T09:58:57;12.90;99.90
40960;DHT22;27842;52.272;8.052;2024-03-22T10:01:26;12.90;99.90
40960;DHT22;27842;52.272;8.052;2024-03-22T10:03:52;12.90;99.90
40960;DHT22;27842;52.272;8.052;2024-03-22T10:06:18;12.90;99.90
40960;DHT22;27842;52.272;8.052;2024-03-22T10:08:44;12.90;99.90
40960;DHT22;27842;52.272;8.052;2024-03-22T10:11:10;13.00;99.90
40960;DHT22;27842;52.272;8.052;2024-03-22T10:13:36;13.00;99.90
40960;DHT22;27842;52.272;8.052;2024-03-22T10:16:02;13.00;99.90
40960;DHT22;27842;52.272;8.052;2024-03-22T10:18:28;12.90;99.90
40960;DHT22;27842;52.272;8.052;2024-03-22T10:21:06;12.90;99.90
40960;DHT22;27842;52.272;8.052;2024-03-22T10:23:32;12.90;99.90
40960;DHT22;27842;52.272;8.052;2024-03-22T10:25:58;12.90;99.90
40960;DHT22;27842;52.272;8.052;2024-03-22T10:28:27;12.90;99.90
40960;DHT22;27842;52.272;8.052;2024-03-22T10:30:53;12.80;99.90
40960;DHT22;27842;52.272;8.052;2024-03-22T10:33:22;12.80;99.90
40960;DHT22;27842;52.272;8.052;2024-03-22T10:35:54;12.80;99.90
40960;DHT22;27842;52.272;8.052;2024-03-22T10:38:21;12.80;99.90
40960;DHT22;27842;52.272;8.052;2024-03-22T10:40:47;12.80;99.90
40960;DHT22;27842;52.272;8.052;2024-03-22T10:43:14;12.70;99.90
40960;DHT22;27842;52.272;8.052;2024-03-22T10:45:40;12.70;99.90
40960;DHT22;27842;52.272;8.052;2024-03-22T10:48:10;12.60;99.90
40960;DHT22;27842;52.272;8.052;2024-03-22T10:50:40;12.60;99.90
40960;DHT22;27842;52.272;8.052;2024-03-22T10:53:15;12.60;99.90
40960;DHT22;27842;52.272;8.052;2024-03-22T10:55:43;12.60;99.90
40960;DHT22;27842;52.272;8.052;2024-03-22T11:00:42;12.60;99.90
40960;DHT22;27842;52.272;8.052;2024-03-22T11:03:15;12.60;99.90
40960;DHT22;27842;52.272;8.052;2024-03-22T11:05:47;12.50;99.90
40960;DHT22;27842;52.272;8.052;2024-03-22T11:08:23;12.50;99.90
40960;DHT22;27842;52.272;8.052;2024-03-22T11:10:49;12.40;99.90
40960;DHT22;27842;52.272;8.052;2024-03-22T11:13:16;12.40;99.90
40960;DHT22;27842;52.272;8.052;2024-03-22T11:15:42;12.30;99.90
40960;DHT22;27842;52.272;8.052;2024-03-22T11:18:08;12.30;99.90
40960;DHT22;27842;52.272;8.052;2024-03-22T11:20:38;12.30;99.90
40960;DHT22;27842;52.272;8.052;2024-03-22T11:23:03;12.20;99.90
40960;DHT22;27842;52.272;8.052;2024-03-22T11:25:31;12.10;99.90
40960;DHT22;27842;52.272;8.052;2024-03-22T11:27:58;12.10;99.90
40960;DHT22;27842;52.272;8.052;2024-03-22T11:30:24;12.00;99.90
40960;DHT22;27842;52.272;8.052;2024-03-22T11:32:50;12.00;99.90
40960;DHT22;27842;52.272;8.052;2024-03-22T11:35:16;12.00;99.90
40960;DHT22;27842;52.272;8.052;2024-03-22T11:37:42;11.90;99.90
40960;DHT22;27842;52.272;8.052;2024-03-22T11:40:09;12.00;99.90
40960;DHT22;27842;52.272;8.052;2024-03-22T11:42:39;11.90;99.90
40960;DHT22;27842;52.272;8.052;2024-03-22T11:45:11;11.90;99.90
40960;DHT22;27842;52.272;8.052;2024-03-22T11:47:37;11.90;99.90
40960;DHT22;27842;52.272;8.052;2024-03-22T11:50:03;11.90;99.90
40960;DHT22;27842;52.272;8.052;2024-03-22T11:52:29;11.90;99.90
40960;DHT22;27842;52.272;8.052;2024-03-22T11:54:55;11.80;99.90
40960;DHT22;27842;52.272;8.052;2024-03-22T11:57:22;11.80;99.90
40960;DHT22;27842;52.272;8.052;2024-03-22T11:59:48;11.70;99.90
40960;DHT22;27842;52.272;8.052;2024-03-22T12:02:14;11.70;99.90
40960;DHT22;27842;52.272;8.052;2024-03-22T12:04:46;11.70;99.90
40960;DHT22;27842;52.272;8.052;2024-03-22T12:07:17;11.80;99.90
40960;DHT22;27842;52.272;8.052;2024-03-22T12:09:46;11.70;99.90
40960;DHT22;27842;52.272;8.052;2024-03-22T12:12:12;11.70;99.90
40960;DHT22;27842;52.272;8.052;2024-03-22T12:14:39;11.70;99.90
40960;DHT22;27842;52.272;8.052;2024-03-22T12:17:05;11.70;99.90
40960;DHT22;27842;52.272;8.052;2024-03-22T12:19:31;11.70;99.90
40960;DHT22;27842;52.272;8.052;2024-03-22T12:21:57;11.70;99.90
40960;DHT22;27842;52.272;8.052;2024-03-22T12:24:23;11.80;99.90
40960;DHT22;27842;52.272;8.052;2024-03-22T12:26:49;11.70;99.90
40960;DHT22;27842;52.272;8.052;2024-03-22T12:29:16;11.70;99.90
40960;DHT22;27842;52.272;8.052;2024-03-22T12:31:42;11.70;99.90
40960;DHT22;27842;52.272;8.052;2024-03-22T12:34:08;11.70;99.90
40960;DHT22;27842;52.272;8.052;2024-03-22T12:36:33;11.70;99.90
40960;DHT22;27842;52.272;8.052;2024-03-22T12:38:59;11.60;99.90
40960;DHT22;27842;52.272;8.052;2024-03-22T12:41:25;11.60;99.90
40960;DHT22;27842;52.272;8.052;2024-03-22T12:43:51;11.60;99.90
40960;DHT22;27842;52.272;8.052;2024-03-22T12:46:16;11.60;99.90
40960;DHT22;27842;52.272;8.052;2024-03-22T12:48:42;11.60;99.90
40960;DHT22;27842;52.272;8.052;2024-03-22T12:51:08;11.60;99.90
40960;DHT22;27842;52.272;8.052;2024-03-22T12:53:33;11.60;99.90
40960;DHT22;27842;52.272;8.052;2024-03-22T12:55:59;11.70;99.90
40960;DHT22;27842;52.272;8.052;2024-03-22T12:58:25;11.70;99.90
40960;DHT22;27842;52.272;8.052;2024-03-22T13:00:50;11.60;99.90
40960;DHT22;27842;52.272;8.052;2024-03-22T13:03:19;11.50;99.90
40960;DHT22;27842;52.272;8.052;2024-03-22T13:05:45;11.60;99.90
40960;DHT22;27842;52.272;8.052;2024-03-22T13:08:10;11.50;99.90
40960;DHT22;27842;52.272;8.052;2024-03-22T13:10:36;11.50;99.90
40960;DHT22;27842;52.272;8.052;2024-03-22T13:13:01;11.50;99.90
40960;DHT22;27842;52.272;8.052;2024-03-22T13:15:27;11.50;99.90
40960;DHT22;27842;52.272;8.052;2024-03-22T13:17:52;11.40;99.90
40960;DHT22;27842;52.272;8.052;2024-03-22T13:20:20;11.50;99.90
40960;DHT22;27842;52.272;8.052;2024-03-22T13:22:46;11.50;99.90
40960;DHT22;27842;52.272;8.052;2024-03-22T13:25:11;11.40;99.90
40960;DHT22;27842;52.272;8.052;2024-03-22T13:27:37;11.40;99.90
40960;DHT22;27842;52.272;8.052;2024-03-22T13:30:09;11.40;99.90
40960;DHT22;27842;52.272;8.052;2024-03-22T13:32:36;11.40;99.90
40960;DHT22;27842;52.272;8.052;2024-03-22T13:35:03;11.40;99.90
40960;DHT22;27842;52.272;8.052;2024-03-22T13:37:30;11.40;99.90
40960;DHT22;27842;52.272;8.052;2024-03-22T13:39:55;11.40;99.90
40960;DHT22;27842;52.272;8.052;2024-03-22T13:42:21;11.40;99.90
40960;DHT22;27842;52.272;8.052;2024-03-22T13:44:47;11.40;99.90
40960;DHT22;27842;52.272;8.052;2024-03-22T13:47:12;11.40;99.90
40960;DHT22;27842;52.272;8.052;2024-03-22T13:49:38;11.40;99.90
40960;DHT22;27842;52.272;8.052;2024-03-22T13:52:10;11.40;99.90
40960;DHT22;27842;52.272;8.052;2024-03-22T13:54:36;11.40;99.90
40960;DHT22;27842;52.272;8.052;2024-03-22T13:57:02;11.40;99.90
40960;DHT22;27842;52.272;8.052;2024-03-22T13:59:28;11.40;99.90
40960;DHT22;27842;52.272;8.052;2024-03-22T14:01:54;11.40;99.90
40960;DHT22;27842;52.272;8.052;2024-03-22T14:04:22;11.40;99.90
40960;DHT22;27842;52.272;8.052;2024-03-22T14:06:48;11.40;99.90
40960;DHT22;27842;52.272;8.052;2024-03-22T14:09:14;11.40;99.90
40960;DHT22;27842;52.272;8.052;2024-03-22T14:11:41;11.40;99.90
40960;DHT22;27842;52.272;8.052;2024-03-22T14:14:11;11.40;99.90
40960;DHT22;27842;52.272;8.052;2024-03-22T14:16:40;11.40;99.90
40960;DHT22;27842;52.272;8.052;2024-03-22T14:19:07;11.40;99.90
40960;DHT22;27842;52.272;8.052;2024-03-22T14:21:34;11.40;99.90
40960;DHT22;27842;52.272;8.052;2024-03-22T14:23:59;11.40;99.90
40960;DHT22;27842;52.272;8.052;2024-03-22T14:26:25;11.40;99.90
40960;DHT22;27842;52.272;8.052;2024-03-22T14:28:51;11.30;99.90
40960;DHT22;27842;52.272;8.052;2024-03-22T14:31:18;11.40;99.90
40960;DHT22;27842;52.272;8.052;2024-03-22T14:33:43;11.40;99.90
40960;DHT22;27842;52.272;8.052;2024-03-22T14:36:09;11.30;99.90
40960;DHT22;27842;52.272;8.052;2024-03-22T14:38:36;11.40;99.90
40960;DHT22;27842;52.272;8.052;2024-03-22T14:41:04;11.30;99.90
40960;DHT22;27842;52.272;8.052;2024-03-22T14:43:30;11.30;99.90
40960;DHT22;27842;52.272;8.052;2024-03-22T14:46:01;11.40;99.90
40960;DHT22;27842;52.272;8.052;2024-03-22T14:48:30;11.30;99.90
40960;DHT22;27842;52.272;8.052;2024-03-22T14:50:56;11.30;99.90
40960;DHT22;27842;52.272;8.052;2024-03-22T14:53:21;11.30;99.90
40960;DHT22;27842;52.272;8.052;2024-03-22T14:55:58;11.40;99.90
40960;DHT22;27842;52.272;8.052;2024-03-22T14:58:27;11.40;99.90
40960;DHT22;27842;52.272;8.052;2024-03-22T15:00:54;11.30;99.90
40960;DHT22;27842;52.272;8.052;2024-03-22T15:03:20;11.30;99.90
40960;DHT22;27842;52.272;8.052;2024-03-22T15:05:47;11.30;99.90
40960;DHT22;27842;52.272;8.052;2024-03-22T15:08:14;11.30;99.90
40960;DHT22;27842;52.272;8.052;2024-03-22T15:10:39;11.30;99.90
40960;DHT22;27842;52.272;8.052;2024-03-22T15:13:05;11.30;99.90
40960;DHT22;27842;52.272;8.052;2024-03-22T15:15:32;11.30;99.90
40960;DHT22;27842;52.272;8.052;2024-03-22T15:17:58;11.30;99.90
40960;DHT22;27842;52.272;8.052;2024-03-22T15:20:24;11.30;99.90
40960;DHT22;27842;52.272;8.052;2024-03-22T15:22:50;11.30;99.90
40960;DHT22;27842;52.272;8.052;2024-03-22T15:25:16;11.30;99.90
40960;DHT22;27842;52.272;8.052;2024-03-22T15:27:42;11.30;99.90